Caledonia, ND

8:39 AM CST on December 07, 2016 (GMT -0600)
Climax | | Change Station
Active Advisory: Winter Weather Advisory Active Notice: Record Report, Local Storm Report

Elev 853 ft 47.61 °N, 96.81 °W | Updated 22 minutes ago

Light Snow
Light Snow
15.1 °F
Feels Like -3 °F
N
21.0
Wind Variable Wind from West
Gusts 27.0 mph

Today
High -- | Low -- °F
--% Chance of Precip.
Yesterday
High -- | Low -- °F
Precip. -- in
Pressure 29.90 in
Visibility 1.0 miles
Clouds Overcast 1600 ft
Windchill -3 °F
Dew Point 13 °F
Humidity 92%
Rainfall 0.00 in
Snow Depth Not available.
8:01 AM 4:36 PM
First Quarter, 53% visible
METAR KCKN 071434Z AUTO 30023G26KT 1SM -SN OVC016 M09/M11 A2990 RMK AO2
Pressure 29.90 in
Visibility 1.0 miles
Clouds Overcast 1600 ft
Windchill -3 °F
Dew Point 13 °F
Humidity 92%
Rainfall 0.00 in
Snow Depth Not available.
8:01 AM 4:36 PM
First Quarter, 53% visible
METAR KCKN 071434Z AUTO 30023G26KT 1SM -SN OVC016 M09/M11 A2990 RMK AO2

10-Day Weather Forecast

Almanac

Astronomy

Dec. 07, 2016 Rise Set
Actual Time
Civil Twilight
Nautical Twilight
Astronomical Twilight
Moon
Length of Visible Light
Length of Day
Tomorrow will be .
, % of the Moon is Illuminated

Today's Extremes

State Highs State Lows

Community

WunderPhotos

Upload Photos

1,956,116 photos uploaded!

WunderBlog® & News

Nearby

Air Quality

  Air Quality AQ Index Pollutant
Not available.

Snow Depth

Station Depth Elevation

Earthquake Activity

City Distance Mag. Time & Date
Minimum magnitude displayed is 2.5.

Coastal Water Temperatures

Place Temperature

Stations

Nearby Weather Stations

Station Location Temp. Windchill Dew Point Humidity Wind Precip. Elev Updated Type
                   

Watches & Warnings

Winter Weather Advisory
Issued: 6:02 AM CST Dec. 7, 2016 – National Weather Service

... Winter Weather Advisory remains in effect until 6 PM CST this
evening...
... Blizzard Warning will expire at 6 am CST early this morning...

* impacts... areas of light snow and blowing and drifting snow
today will cause locally reduced visibilities.

* Additional snow accumulations... around an 1 inch.

* Winds... northwest 25 to 35 mph with gusts up to 45 mph.

* Visibilities... locally one half mile or less.

* Wind chill values... 5 below to 15 below zero.

Precautionary/preparedness actions...

A Winter Weather Advisory for blowing snow means that
visibilities will be limited due to strong winds blowing snow
around. Use caution when traveling... especially in open areas.